createdAt,value
2023-07-06T00:00:31.364Z,79.20
2023-07-06T00:01:48.390Z,79.20
2023-07-06T00:02:32.394Z,79.18
2023-07-06T00:03:15.700Z,79.27
2023-07-06T00:03:59.383Z,78.98
2023-07-06T00:04:39.851Z,78.97
2023-07-06T00:05:21.330Z,78.83
2023-07-06T00:06:04.088Z,79.13
2023-07-06T00:06:45.326Z,78.76
2023-07-06T00:07:26.409Z,78.76
2023-07-06T00:08:08.383Z,78.17
2023-07-06T00:08:48.454Z,78.45
2023-07-06T00:09:28.341Z,78.20
2023-07-06T00:10:08.808Z,78.34
2023-07-06T00:10:52.361Z,78.17
2023-07-06T00:11:38.525Z,78.12
2023-07-06T00:12:19.356Z,77.98
2023-07-06T00:13:02.177Z,78.01
2023-07-06T00:13:43.454Z,77.78
2023-07-06T00:14:25.427Z,77.81
2023-07-06T00:15:05.421Z,77.66
2023-07-06T00:15:47.129Z,78.04
2023-07-06T00:16:28.489Z,77.69
2023-07-06T00:17:18.744Z,77.61
2023-07-06T00:17:58.346Z,77.21
2023-07-06T00:18:40.437Z,77.17
2023-07-06T00:19:25.357Z,77.56
2023-07-06T00:20:14.159Z,77.16
2023-07-06T00:20:57.353Z,77.25
2023-07-06T00:21:37.527Z,77.28
2023-07-06T00:22:19.331Z,77.07
2023-07-06T00:22:59.432Z,76.92
2023-07-06T00:23:39.331Z,77.19
2023-07-06T00:24:19.400Z,77.02
2023-07-06T00:25:00.375Z,76.96
2023-07-06T00:25:42.920Z,76.71
2023-07-06T00:26:27.328Z,76.53
2023-07-06T00:27:07.437Z,76.92
2023-07-06T00:27:47.340Z,76.88
2023-07-06T00:28:29.592Z,76.50
2023-07-06T00:29:10.312Z,76.73
2023-07-06T00:30:23.354Z,76.71
2023-07-06T00:31:28.366Z,76.61
2023-07-06T00:32:34.384Z,76.47
2023-07-06T00:33:31.308Z,76.60
2023-07-06T00:34:26.331Z,76.56
2023-07-06T00:35:21.396Z,76.63
2023-07-06T00:36:02.381Z,76.68
2023-07-06T00:36:42.467Z,76.63
2023-07-06T00:37:23.366Z,76.57
2023-07-06T00:38:04.127Z,76.59
2023-07-06T00:38:44.318Z,76.31
2023-07-06T00:39:24.393Z,76.45
2023-07-06T00:40:04.338Z,76.56
2023-07-06T00:41:05.335Z,76.65
2023-07-06T00:41:40.936Z,76.51
2023-07-06T00:42:30.327Z,76.72
2023-07-06T00:43:04.501Z,76.49
2023-07-06T00:44:02.320Z,76.54
2023-07-06T00:45:05.527Z,76.35
2023-07-06T00:45:53.316Z,76.11
2023-07-06T00:46:37.414Z,76.39
2023-07-06T00:47:49.406Z,76.39
2023-07-06T00:48:51.308Z,76.23
2023-07-06T00:49:45.310Z,76.23
2023-07-06T00:50:42.345Z,76.05
2023-07-06T00:51:45.326Z,76.23
2023-07-06T00:52:39.306Z,76.58
2023-07-06T00:53:35.322Z,76.21
2023-07-06T00:54:32.335Z,76.11
2023-07-06T00:55:27.320Z,76.04
2023-07-06T00:56:24.318Z,75.82
2023-07-06T00:57:04.322Z,76.04
2023-07-06T00:57:45.445Z,75.63
2023-07-06T00:58:36.309Z,75.51
2023-07-06T00:59:20.586Z,75.24
2023-07-06T01:00:02.413Z,75.07
2023-07-06T01:00:48.968Z,75.14
2023-07-06T01:01:31.348Z,75.17
2023-07-06T01:02:19.446Z,75.17
2023-07-06T01:03:15.438Z,74.95
2023-07-06T01:04:10.319Z,75.02
2023-07-06T01:05:04.295Z,74.75
2023-07-06T01:05:58.555Z,74.39
2023-07-06T01:07:04.305Z,74.43
2023-07-06T01:07:46.318Z,74.34
2023-07-06T01:08:29.450Z,74.22
2023-07-06T01:09:14.312Z,74.35
2023-07-06T01:09:54.552Z,74.26
2023-07-06T01:10:35.327Z,74.33
2023-07-06T01:11:16.463Z,74.12
2023-07-06T01:11:57.303Z,73.67
2023-07-06T01:12:38.801Z,73.94
2023-07-06T01:13:19.325Z,74.12
2023-07-06T01:14:01.829Z,74.24
2023-07-06T01:14:43.285Z,74.01
2023-07-06T01:15:23.383Z,74.13
2023-07-06T01:16:26.341Z,74.37
2023-07-06T01:17:25.431Z,74.19
2023-07-06T01:18:40.333Z,73.96
2023-07-06T01:20:05.409Z,74.11
2023-07-06T01:21:11.306Z,73.60
2023-07-06T01:22:03.434Z,73.39
2023-07-06T01:22:46.285Z,72.72
2023-07-06T01:24:12.283Z,72.64
2023-07-06T01:25:35.271Z,73.24
2023-07-06T01:27:13.299Z,73.21
2023-07-06T01:28:42.294Z,73.57
2023-07-06T01:29:29.342Z,73.72
2023-07-06T01:30:35.384Z,73.75
2023-07-06T01:31:44.334Z,73.66
2023-07-06T01:32:24.452Z,73.39
2023-07-06T01:33:19.281Z,73.33
2023-07-06T01:34:39.319Z,73.32
2023-07-06T01:35:50.265Z,73.56
2023-07-06T01:36:54.256Z,73.92
2023-07-06T01:37:53.266Z,73.38
2023-07-06T01:38:47.274Z,73.10
2023-07-06T01:39:41.368Z,72.95
2023-07-06T01:40:35.276Z,72.96
2023-07-06T01:41:41.315Z,73.30
2023-07-06T01:42:42.340Z,73.12
2023-07-06T01:43:36.376Z,72.82
2023-07-06T01:44:33.258Z,72.88
2023-07-06T01:45:27.300Z,72.92
2023-07-06T01:46:07.352Z,72.86
2023-07-06T01:46:57.321Z,73.07
2023-07-06T01:47:41.388Z,72.82
2023-07-06T01:48:22.270Z,72.99
2023-07-06T01:49:02.357Z,73.16
2023-07-06T01:49:43.273Z,72.78
2023-07-06T01:50:34.276Z,72.67
2023-07-06T01:51:36.252Z,73.18
2023-07-06T01:52:57.278Z,73.04
2023-07-06T01:54:31.297Z,72.82
2023-07-06T01:55:39.284Z,73.23
2023-07-06T01:57:02.258Z,73.37
2023-07-06T01:58:37.292Z,74.59
2023-07-06T01:59:34.280Z,74.49
2023-07-06T02:00:29.383Z,74.54
2023-07-06T02:01:20.319Z,74.50
2023-07-06T02:02:04.410Z,74.33
2023-07-06T02:02:45.351Z,74.31
2023-07-06T02:03:27.424Z,74.34
2023-07-06T02:04:08.319Z,74.26
2023-07-06T02:04:50.346Z,74.15
2023-07-06T02:05:31.257Z,74.17
2023-07-06T02:06:13.355Z,74.72
2023-07-06T02:06:55.270Z,74.76
2023-07-06T02:07:36.148Z,74.76
2023-07-06T02:08:18.268Z,75.06
2023-07-06T02:08:58.439Z,74.90
2023-07-06T02:09:38.240Z,75.04
2023-07-06T02:10:26.728Z,75.01
2023-07-06T02:11:09.231Z,75.33
2023-07-06T02:11:53.099Z,75.78
2023-07-06T02:12:33.287Z,75.64
2023-07-06T02:13:13.911Z,75.64
2023-07-06T02:13:55.306Z,75.67
2023-07-06T02:14:35.327Z,75.51
2023-07-06T02:15:16.236Z,75.45
2023-07-06T02:15:56.515Z,75.85
2023-07-06T02:16:37.284Z,76.28
2023-07-06T02:17:18.363Z,76.25
2023-07-06T02:17:58.289Z,76.61
2023-07-06T02:18:41.361Z,76.45
2023-07-06T02:19:22.239Z,76.10
2023-07-06T02:20:02.314Z,76.41
2023-07-06T02:20:42.233Z,77.18
2023-07-06T02:21:23.270Z,76.35
2023-07-06T02:22:03.232Z,76.30
2023-07-06T02:22:43.384Z,76.86
2023-07-06T02:23:23.236Z,77.23
2023-07-06T02:24:03.389Z,77.71
2023-07-06T02:24:46.259Z,76.63
2023-07-06T02:25:26.332Z,77.40
2023-07-06T02:26:07.258Z,77.40
2023-07-06T02:26:47.359Z,77.81
2023-07-06T02:27:27.237Z,78.06
2023-07-06T02:28:09.352Z,78.20
2023-07-06T02:28:50.262Z,78.45
2023-07-06T02:29:30.316Z,78.29
2023-07-06T02:30:13.238Z,78.76
2023-07-06T02:30:56.847Z,78.66
2023-07-06T02:31:37.228Z,78.46
2023-07-06T02:32:17.323Z,78.69
2023-07-06T02:32:58.263Z,78.78
2023-07-06T02:33:38.357Z,78.98
2023-07-06T02:34:18.244Z,79.46
2023-07-06T02:34:58.307Z,79.50
2023-07-06T02:35:40.222Z,79.70
2023-07-06T02:36:20.322Z,80.20
2023-07-06T02:37:04.234Z,79.84
2023-07-06T02:37:45.384Z,80.86
2023-07-06T02:38:28.219Z,80.79
2023-07-06T02:39:08.322Z,80.31
2023-07-06T02:39:49.322Z,80.29
2023-07-06T02:40:31.113Z,80.01
2023-07-06T02:41:12.243Z,80.44
2023-07-06T02:41:55.384Z,80.42
2023-07-06T02:42:36.255Z,80.43
2023-07-06T02:43:17.442Z,79.89
2023-07-06T02:43:58.215Z,79.79
2023-07-06T02:44:38.342Z,79.76
2023-07-06T02:45:19.232Z,79.77
2023-07-06T02:45:59.558Z,79.60
2023-07-06T02:46:39.309Z,79.59
2023-07-06T02:47:19.343Z,79.81
2023-07-06T02:48:00.281Z,79.66
2023-07-06T02:48:40.967Z,79.75
2023-07-06T02:49:23.197Z,79.53
2023-07-06T02:50:03.410Z,79.19
2023-07-06T02:50:44.236Z,79.36
2023-07-06T02:51:24.361Z,79.17
2023-07-06T02:52:07.230Z,79.37
2023-07-06T02:52:48.796Z,79.70
2023-07-06T02:53:29.216Z,79.50
2023-07-06T02:54:11.133Z,79.19
2023-07-06T02:54:52.197Z,79.04
2023-07-06T02:55:33.376Z,79.03
2023-07-06T02:56:14.220Z,78.95
2023-07-06T02:56:54.307Z,79.12
2023-07-06T02:57:34.226Z,79.31
2023-07-06T02:58:14.341Z,79.29
2023-07-06T02:58:54.212Z,79.17
2023-07-06T02:59:38.585Z,79.31
2023-07-06T03:00:22.206Z,79.81
2023-07-06T03:01:02.322Z,79.59
2023-07-06T03:01:44.263Z,79.67
2023-07-06T03:02:24.416Z,79.23
2023-07-06T03:03:05.185Z,79.05
2023-07-06T03:03:45.337Z,79.09
2023-07-06T03:04:27.207Z,78.92
2023-07-06T03:05:07.433Z,78.35
2023-07-06T03:05:51.202Z,79.12
2023-07-06T03:06:31.572Z,79.91
2023-07-06T03:07:13.228Z,79.22
2023-07-06T03:07:54.058Z,79.12
2023-07-06T03:08:35.202Z,79.31
2023-07-06T03:09:16.695Z,79.12
2023-07-06T03:09:57.205Z,79.03
2023-07-06T03:10:37.293Z,79.46
2023-07-06T03:11:18.223Z,79.28
2023-07-06T03:11:59.287Z,79.08
2023-07-06T03:12:44.213Z,79.20
2023-07-06T03:13:27.041Z,79.01
2023-07-06T03:14:10.185Z,78.91
2023-07-06T03:14:50.265Z,78.82
2023-07-06T03:15:31.189Z,78.99
2023-07-06T03:16:11.890Z,78.49
2023-07-06T03:16:53.345Z,78.86
2023-07-06T03:17:33.431Z,79.02
2023-07-06T03:18:14.223Z,79.22
2023-07-06T03:18:54.355Z,78.92
2023-07-06T03:19:34.189Z,78.80
2023-07-06T03:20:16.292Z,78.50
2023-07-06T03:20:57.174Z,78.50
2023-07-06T03:21:39.123Z,79.29
2023-07-06T03:22:19.159Z,79.32
2023-07-06T03:23:01.345Z,78.74
2023-07-06T03:23:41.205Z,79.50
2023-07-06T03:24:21.304Z,79.65
2023-07-06T03:25:02.224Z,79.74
2023-07-06T03:25:42.272Z,79.42
2023-07-06T03:26:23.208Z,79.40
2023-07-06T03:27:03.494Z,79.24
2023-07-06T03:27:44.215Z,79.16
2023-07-06T03:28:25.317Z,79.03
2023-07-06T03:29:06.225Z,79.22
2023-07-06T03:29:46.366Z,79.27
2023-07-06T03:30:34.180Z,79.02
2023-07-06T03:31:15.331Z,79.09
2023-07-06T03:31:55.294Z,79.02
2023-07-06T03:32:38.633Z,79.05
2023-07-06T03:33:20.169Z,78.94
2023-07-06T03:34:00.284Z,79.19
2023-07-06T03:34:41.191Z,79.34
2023-07-06T03:35:23.354Z,79.57
2023-07-06T03:36:06.205Z,79.01
2023-07-06T03:36:46.291Z,79.87
2023-07-06T03:37:27.179Z,79.47
2023-07-06T03:38:07.282Z,79.64
2023-07-06T03:38:47.171Z,79.89
2023-07-06T03:39:27.255Z,79.55
2023-07-06T03:40:07.242Z,79.99
2023-07-06T03:40:48.109Z,79.93
2023-07-06T03:41:29.179Z,80.27
2023-07-06T03:42:10.597Z,80.51
2023-07-06T03:42:54.188Z,80.01
2023-07-06T03:43:34.349Z,80.23
2023-07-06T03:44:16.203Z,80.22
2023-07-06T03:44:56.807Z,80.33
2023-07-06T03:45:38.229Z,81.06
2023-07-06T03:46:18.345Z,80.82
2023-07-06T03:46:58.165Z,80.63
2023-07-06T03:47:39.277Z,80.38
2023-07-06T03:48:20.152Z,80.66
2023-07-06T03:49:00.308Z,80.39
2023-07-06T03:49:42.188Z,80.40
2023-07-06T03:50:24.383Z,80.45
2023-07-06T03:51:11.483Z,80.10
2023-07-06T03:51:53.270Z,80.37
2023-07-06T03:52:35.164Z,80.32
2023-07-06T03:53:16.076Z,80.41
2023-07-06T03:53:58.165Z,80.20
2023-07-06T03:54:38.294Z,79.78
2023-07-06T03:55:28.173Z,79.40
2023-07-06T03:56:08.258Z,79.18
2023-07-06T03:56:50.190Z,79.56
2023-07-06T03:57:31.498Z,79.99
2023-07-06T03:58:12.169Z,80.01
2023-07-06T03:58:52.669Z,80.08
2023-07-06T03:59:39.163Z,79.79
2023-07-06T04:00:36.237Z,79.80
2023-07-06T04:01:30.220Z,79.96
2023-07-06T04:02:11.236Z,79.87
2023-07-06T04:02:51.298Z,79.71
2023-07-06T04:03:40.243Z,79.84
2023-07-06T04:04:20.306Z,79.90
2023-07-06T04:05:01.152Z,79.43
2023-07-06T04:05:49.352Z,79.40
2023-07-06T04:06:35.148Z,79.49
2023-07-06T04:07:23.187Z,79.48
2023-07-06T04:08:28.198Z,79.00
2023-07-06T04:09:26.317Z,78.71
2023-07-06T04:10:23.179Z,79.12
2023-07-06T04:11:18.161Z,78.84
2023-07-06T04:12:12.148Z,78.76
2023-07-06T04:12:52.168Z,78.83
2023-07-06T04:13:32.345Z,78.60
2023-07-06T04:14:12.143Z,78.54
2023-07-06T04:14:52.281Z,78.76
2023-07-06T04:15:34.178Z,78.76
2023-07-06T04:16:21.601Z,78.74
2023-07-06T04:17:04.203Z,78.52
2023-07-06T04:17:46.551Z,78.71
2023-07-06T04:18:28.173Z,78.37
2023-07-06T04:19:08.280Z,78.66
2023-07-06T04:19:48.150Z,78.42
2023-07-06T04:20:32.265Z,78.26
2023-07-06T04:21:12.205Z,78.36
2023-07-06T04:21:52.690Z,78.44
2023-07-06T04:22:33.178Z,78.24
2023-07-06T04:23:13.603Z,78.56
2023-07-06T04:23:57.187Z,78.51
2023-07-06T04:24:38.090Z,78.52
2023-07-06T04:25:19.143Z,78.44
2023-07-06T04:26:01.604Z,78.61
2023-07-06T04:26:42.137Z,78.54
2023-07-06T04:27:22.211Z,78.74
2023-07-06T04:28:07.148Z,79.04
2023-07-06T04:28:48.834Z,79.09
2023-07-06T04:29:30.185Z,79.15
2023-07-06T04:30:11.254Z,79.04
2023-07-06T04:30:57.171Z,78.63
2023-07-06T04:31:37.521Z,78.72
2023-07-06T04:32:18.207Z,78.66
2023-07-06T04:32:58.244Z,79.14
2023-07-06T04:33:38.129Z,78.78
2023-07-06T04:34:19.377Z,78.83
2023-07-06T04:35:00.171Z,78.86
2023-07-06T04:35:42.234Z,78.65
2023-07-06T04:36:26.297Z,78.69
2023-07-06T04:37:06.235Z,78.70
2023-07-06T04:37:49.159Z,78.62
2023-07-06T04:38:35.728Z,78.83
2023-07-06T04:39:18.223Z,78.78
2023-07-06T04:39:58.518Z,78.83
2023-07-06T04:40:42.256Z,78.79
2023-07-06T04:41:23.302Z,78.37
2023-07-06T04:42:04.290Z,78.11
2023-07-06T04:42:44.343Z,78.53
2023-07-06T04:43:26.134Z,78.28
2023-07-06T04:44:07.412Z,78.11
2023-07-06T04:44:48.128Z,78.42
2023-07-06T04:45:31.238Z,78.00
2023-07-06T04:46:12.134Z,77.82
2023-07-06T04:46:54.617Z,77.82
2023-07-06T04:47:36.180Z,77.72
2023-07-06T04:48:17.985Z,78.03
2023-07-06T04:48:58.148Z,76.72
2023-07-06T04:49:39.066Z,76.23
2023-07-06T04:50:25.139Z,76.26
2023-07-06T04:51:05.581Z,76.44
2023-07-06T04:51:47.138Z,77.11
2023-07-06T04:52:27.248Z,77.12
2023-07-06T04:53:09.152Z,76.68
2023-07-06T04:53:49.524Z,77.25
2023-07-06T04:54:29.127Z,76.66
2023-07-06T04:55:12.196Z,76.14
2023-07-06T04:55:55.352Z,75.58
2023-07-06T04:56:38.408Z,75.34
2023-07-06T04:57:24.165Z,75.69
2023-07-06T04:58:07.788Z,75.95
2023-07-06T04:58:50.100Z,75.80
2023-07-06T04:59:31.263Z,75.86
2023-07-06T05:00:26.116Z,76.17
2023-07-06T05:01:07.550Z,75.83
2023-07-06T05:01:48.131Z,75.45
2023-07-06T05:02:38.174Z,75.44
2023-07-06T05:03:32.218Z,75.02
2023-07-06T05:04:26.126Z,75.06
2023-07-06T05:05:21.107Z,75.21
2023-07-06T05:06:22.141Z,75.08
2023-07-06T05:07:20.140Z,75.36
2023-07-06T05:08:01.163Z,75.94
2023-07-06T05:08:44.624Z,75.71
2023-07-06T05:09:25.118Z,75.53
2023-07-06T05:10:05.235Z,75.30
2023-07-06T05:10:46.090Z,74.94
2023-07-06T05:11:27.516Z,75.15
2023-07-06T05:12:08.092Z,74.76
2023-07-06T05:12:49.337Z,75.21
2023-07-06T05:13:30.208Z,75.53
2023-07-06T05:14:10.211Z,75.75
2023-07-06T05:14:50.100Z,75.51
2023-07-06T05:15:31.230Z,75.57
2023-07-06T05:16:12.124Z,74.93
2023-07-06T05:16:52.246Z,75.01
2023-07-06T05:17:32.115Z,74.63
2023-07-06T05:18:13.226Z,75.74
2023-07-06T05:18:56.136Z,75.27
2023-07-06T05:19:37.318Z,75.25
2023-07-06T05:20:22.113Z,74.54
2023-07-06T05:21:04.221Z,74.27
2023-07-06T05:21:44.114Z,74.59
2023-07-06T05:22:25.223Z,74.71
2023-07-06T05:23:06.111Z,74.16
2023-07-06T05:23:46.198Z,74.33
2023-07-06T05:24:27.132Z,74.48
2023-07-06T05:25:07.261Z,74.67
2023-07-06T05:25:47.090Z,74.95
2023-07-06T05:26:27.170Z,74.54
2023-07-06T05:27:07.129Z,75.10
2023-07-06T05:27:47.245Z,74.51
2023-07-06T05:28:28.152Z,74.51
2023-07-06T05:29:08.270Z,74.53
2023-07-06T05:29:49.125Z,74.72
2023-07-06T05:30:30.383Z,74.55
2023-07-06T05:31:11.185Z,74.54
2023-07-06T05:31:54.435Z,74.85
2023-07-06T05:32:35.120Z,75.77
2023-07-06T05:33:15.247Z,75.41
2023-07-06T05:33:56.122Z,75.45
2023-07-06T05:34:37.209Z,75.50
2023-07-06T05:35:18.117Z,75.16
2023-07-06T05:35:58.331Z,74.81
2023-07-06T05:36:40.089Z,75.09
2023-07-06T05:37:34.131Z,74.88
2023-07-06T05:38:18.092Z,75.42
2023-07-06T05:38:58.193Z,75.28
2023-07-06T05:39:38.116Z,75.27
2023-07-06T05:40:26.116Z,76.20
2023-07-06T05:41:20.137Z,75.79
2023-07-06T05:42:14.090Z,76.12
2023-07-06T05:43:08.084Z,75.98
2023-07-06T05:44:02.107Z,76.17
2023-07-06T05:44:56.084Z,76.16
2023-07-06T05:45:43.139Z,76.40
2023-07-06T05:46:17.243Z,76.16
2023-07-06T05:47:04.080Z,75.52
2023-07-06T05:47:38.277Z,75.36
2023-07-06T05:48:26.064Z,74.90
2023-07-06T05:49:01.530Z,75.30
2023-07-06T05:49:48.061Z,74.61
2023-07-06T05:50:22.171Z,74.77
2023-07-06T05:51:09.116Z,74.56
2023-07-06T05:51:43.235Z,74.46
2023-07-06T05:52:30.081Z,74.98
2023-07-06T05:53:04.435Z,74.88
2023-07-06T05:53:52.100Z,74.84
2023-07-06T05:54:26.163Z,75.02
2023-07-06T05:55:14.122Z,75.50
2023-07-06T05:55:54.289Z,74.78
2023-07-06T05:56:34.084Z,74.94
2023-07-06T05:57:18.585Z,74.06
2023-07-06T05:58:00.061Z,72.84
2023-07-06T05:58:41.236Z,73.03
2023-07-06T05:59:23.176Z,71.33
2023-07-06T06:00:03.192Z,71.59
2023-07-06T06:00:45.062Z,72.93
2023-07-06T06:02:02.136Z,73.06
2023-07-06T06:03:17.455Z,71.76
2023-07-06T06:03:57.120Z,71.79
2023-07-06T06:04:39.036Z,71.79
2023-07-06T06:05:22.167Z,71.84
2023-07-06T06:06:03.183Z,71.80
2023-07-06T06:06:59.094Z,71.75
2023-07-06T06:07:41.088Z,71.61
2023-07-06T06:08:21.224Z,72.25
2023-07-06T06:09:02.087Z,72.14
2023-07-06T06:09:42.194Z,71.88
2023-07-06T06:10:23.072Z,72.21
2023-07-06T06:11:04.136Z,71.54
2023-07-06T06:11:44.050Z,71.41
2023-07-06T06:12:25.238Z,71.50
2023-07-06T06:13:05.112Z,71.19
2023-07-06T06:13:45.186Z,71.26
2023-07-06T06:14:27.067Z,71.52
2023-07-06T06:15:11.308Z,71.52
2023-07-06T06:15:51.098Z,71.63
2023-07-06T06:16:34.157Z,72.28
2023-07-06T06:17:14.051Z,71.71
2023-07-06T06:17:56.296Z,71.74
2023-07-06T06:18:38.075Z,71.20
2023-07-06T06:19:19.227Z,71.08
2023-07-06T06:20:00.068Z,71.31
2023-07-06T06:20:41.194Z,71.42
2023-07-06T06:21:21.067Z,71.17
2023-07-06T06:22:01.186Z,71.37
2023-07-06T06:22:41.048Z,71.64
2023-07-06T06:23:22.166Z,71.79
2023-07-06T06:24:03.088Z,71.44
2023-07-06T06:24:43.813Z,71.43
2023-07-06T06:25:24.087Z,71.20
2023-07-06T06:26:04.190Z,71.33
2023-07-06T06:26:45.073Z,71.29
2023-07-06T06:27:26.141Z,71.32
2023-07-06T06:28:06.095Z,71.16
2023-07-06T06:28:46.252Z,71.84
2023-07-06T06:29:26.056Z,71.60
2023-07-06T06:30:06.698Z,71.45
2023-07-06T06:30:48.052Z,71.45
2023-07-06T06:31:29.139Z,71.21
2023-07-06T06:32:11.179Z,71.08
2023-07-06T06:32:51.163Z,71.51
2023-07-06T06:33:32.036Z,71.40
2023-07-06T06:34:12.176Z,71.37
2023-07-06T06:34:53.064Z,71.60
2023-07-06T06:35:36.234Z,71.36
2023-07-06T06:36:16.060Z,71.86
2023-07-06T06:36:57.149Z,71.32
2023-07-06T06:37:37.020Z,71.65
2023-07-06T06:38:17.385Z,71.88
2023-07-06T06:38:58.044Z,71.48
2023-07-06T06:39:41.073Z,71.77
2023-07-06T06:40:22.120Z,71.89
2023-07-06T06:41:02.698Z,72.01
2023-07-06T06:41:47.047Z,71.75
2023-07-06T06:42:29.589Z,72.10
2023-07-06T06:43:12.034Z,71.96
2023-07-06T06:43:52.197Z,72.20
2023-07-06T06:44:32.033Z,72.08
2023-07-06T06:45:14.159Z,71.75
2023-07-06T06:45:54.169Z,72.01
2023-07-06T06:46:34.321Z,72.18
2023-07-06T06:47:16.051Z,72.36
2023-07-06T06:47:56.261Z,72.44
2023-07-06T06:48:37.037Z,72.59
2023-07-06T06:49:17.122Z,72.23
2023-07-06T06:49:57.045Z,72.72
2023-07-06T06:50:37.096Z,72.79
2023-07-06T06:51:19.089Z,73.27
2023-07-06T06:52:02.202Z,73.15
2023-07-06T06:52:45.068Z,73.03
2023-07-06T06:53:25.261Z,72.48
2023-07-06T06:54:06.036Z,73.02
2023-07-06T06:54:46.134Z,73.04
2023-07-06T06:55:27.020Z,73.11
2023-07-06T06:56:08.149Z,73.19
2023-07-06T06:56:48.067Z,73.51
2023-07-06T06:57:31.904Z,73.39
2023-07-06T06:58:12.024Z,73.53
2023-07-06T06:58:53.323Z,73.81
2023-07-06T06:59:35.038Z,73.79
2023-07-06T07:00:18.136Z,73.39
2023-07-06T07:01:14.089Z,74.00
2023-07-06T07:02:02.117Z,74.10
2023-07-06T07:02:35.793Z,74.07
2023-07-06T07:03:24.034Z,73.98
2023-07-06T07:04:01.176Z,73.96
2023-07-06T07:04:48.064Z,74.02
2023-07-06T07:05:21.802Z,73.52
2023-07-06T07:06:20.035Z,73.61
2023-07-06T07:06:53.807Z,73.84
2023-07-06T07:07:36.043Z,73.32
2023-07-06T07:08:10.206Z,72.97
2023-07-06T07:08:57.017Z,72.69
2023-07-06T07:09:31.103Z,72.83
2023-07-06T07:10:19.004Z,72.62
2023-07-06T07:11:18.295Z,72.46
2023-07-06T07:12:11.091Z,72.21
2023-07-06T07:12:57.046Z,72.04
2023-07-06T07:13:52.172Z,72.09
2023-07-06T07:14:46.019Z,71.92
2023-07-06T07:15:40.038Z,71.68
2023-07-06T07:16:35.031Z,71.76
2023-07-06T07:17:29.075Z,71.37
2023-07-06T07:18:17.043Z,70.78
2023-07-06T07:18:52.155Z,70.34
2023-07-06T07:19:41.001Z,70.66
2023-07-06T07:20:16.175Z,71.25
2023-07-06T07:21:03.018Z,71.28
2023-07-06T07:21:37.199Z,70.27
2023-07-06T07:22:23.981Z,70.04
2023-07-06T07:23:04.081Z,70.39
2023-07-06T07:23:52.048Z,70.47
2023-07-06T07:24:33.511Z,70.44
2023-07-06T07:25:15.002Z,69.68
2023-07-06T07:25:55.437Z,69.77
2023-07-06T07:26:37.076Z,69.51
2023-07-06T07:27:17.428Z,69.35
2023-07-06T07:27:57.988Z,69.78
2023-07-06T07:28:39.094Z,69.71
2023-07-06T07:29:19.034Z,69.36
2023-07-06T07:30:00.084Z,68.30
2023-07-06T07:30:42.029Z,68.91
2023-07-06T07:31:24.250Z,69.02
2023-07-06T07:32:04.987Z,69.22
2023-07-06T07:32:48.699Z,69.48
2023-07-06T07:33:28.989Z,69.35
2023-07-06T07:34:09.074Z,68.56
2023-07-06T07:34:50.997Z,68.44
2023-07-06T07:35:31.133Z,67.95
2023-07-06T07:36:13.007Z,67.59
2023-07-06T07:36:54.134Z,67.69
2023-07-06T07:37:34.089Z,67.92
2023-07-06T07:38:14.122Z,68.12
2023-07-06T07:38:56.026Z,67.85
2023-07-06T07:39:36.205Z,68.08
2023-07-06T07:40:24.144Z,67.92
2023-07-06T07:41:08.082Z,67.32
2023-07-06T07:41:52.992Z,68.04
2023-07-06T07:42:33.144Z,67.88
2023-07-06T07:43:16.093Z,67.74
2023-07-06T07:43:57.184Z,67.42
2023-07-06T07:44:36.999Z,67.01
2023-07-06T07:45:19.724Z,67.50
2023-07-06T07:46:11.093Z,67.41
2023-07-06T07:46:51.101Z,67.12
2023-07-06T07:47:32.019Z,66.69
2023-07-06T07:48:14.748Z,66.69
2023-07-06T07:48:58.039Z,66.74
2023-07-06T07:49:39.118Z,66.72
2023-07-06T07:50:19.067Z,66.92
2023-07-06T07:51:04.178Z,65.96
2023-07-06T07:51:44.023Z,66.66
2023-07-06T07:52:24.136Z,66.92
2023-07-06T07:53:05.996Z,67.33
2023-07-06T07:53:48.621Z,67.46
2023-07-06T07:54:29.983Z,66.91
2023-07-06T07:55:12.120Z,66.88
2023-07-06T07:55:51.976Z,66.29
2023-07-06T07:56:34.131Z,66.84
2023-07-06T07:57:15.040Z,67.27
2023-07-06T07:57:57.329Z,66.48
2023-07-06T07:58:40.977Z,66.72
2023-07-06T07:59:21.044Z,66.61
2023-07-06T08:00:02.005Z,66.69
2023-07-06T08:00:42.063Z,66.71
2023-07-06T08:01:36.067Z,67.00
2023-07-06T08:02:49.070Z,66.42
2023-07-06T08:03:33.122Z,66.21
2023-07-06T08:04:13.014Z,66.31
2023-07-06T08:04:55.123Z,66.27
2023-07-06T08:05:35.980Z,66.59
2023-07-06T08:06:20.206Z,66.47
2023-07-06T08:07:03.008Z,66.43
2023-07-06T08:07:47.030Z,66.26
2023-07-06T08:08:30.967Z,66.19
2023-07-06T08:09:11.043Z,66.09
2023-07-06T08:09:51.012Z,65.44
2023-07-06T08:10:32.106Z,65.76
2023-07-06T08:11:21.005Z,65.74
2023-07-06T08:12:01.110Z,66.38
2023-07-06T08:12:40.981Z,66.19
2023-07-06T08:13:21.738Z,65.92
2023-07-06T08:14:04.043Z,65.90
2023-07-06T08:14:42.564Z,65.71
2023-07-06T08:15:30.957Z,65.73
2023-07-06T08:16:06.012Z,65.65
2023-07-06T08:16:54.007Z,65.70
2023-07-06T08:17:27.936Z,65.44
2023-07-06T08:18:14.980Z,65.71
2023-07-06T08:18:58.627Z,65.67
2023-07-06T08:20:09.899Z,65.57
2023-07-06T08:21:27.217Z,65.68
2023-07-06T08:22:04.503Z,65.77
2023-07-06T08:22:48.981Z,65.92
2023-07-06T08:23:23.132Z,65.99
2023-07-06T08:23:58.338Z,66.04
2023-07-06T08:24:38.000Z,65.90
2023-07-06T08:25:18.994Z,65.84
2023-07-06T08:25:54.276Z,65.91
2023-07-06T08:26:42.982Z,65.78
2023-07-06T08:27:17.465Z,65.87
2023-07-06T08:28:11.025Z,65.64
2023-07-06T08:28:46.434Z,65.21
2023-07-06T08:29:33.156Z,65.52
2023-07-06T08:30:08.952Z,65.45
2023-07-06T08:30:49.981Z,65.57
2023-07-06T08:31:28.080Z,65.56
2023-07-06T08:32:04.901Z,66.13
2023-07-06T08:32:45.992Z,66.17
2023-07-06T08:33:22.459Z,66.58
2023-07-06T08:34:00.101Z,66.57
2023-07-06T08:34:39.963Z,66.10
2023-07-06T08:35:14.157Z,66.54
2023-07-06T08:35:49.045Z,66.44
2023-07-06T08:36:33.008Z,66.47
2023-07-06T08:37:07.072Z,66.47
2023-07-06T08:37:40.776Z,65.81
2023-07-06T08:38:22.148Z,65.79
2023-07-06T08:38:57.512Z,65.78
2023-07-06T08:39:34.508Z,66.50
2023-07-06T08:40:24.988Z,66.22
2023-07-06T08:40:59.155Z,65.97
2023-07-06T08:41:46.985Z,65.80
2023-07-06T08:42:27.162Z,66.11
2023-07-06T08:43:09.178Z,66.14
2023-07-06T08:43:50.460Z,66.24
2023-07-06T08:44:30.939Z,66.37
2023-07-06T08:45:12.014Z,66.01
2023-07-06T08:45:57.043Z,66.25
2023-07-06T08:46:46.813Z,65.99
2023-07-06T08:47:33.122Z,65.56
2023-07-06T08:48:26.773Z,65.56
2023-07-06T08:49:07.941Z,65.50
2023-07-06T08:49:48.033Z,65.69
2023-07-06T08:50:35.943Z,65.33
2023-07-06T08:51:38.340Z,65.33
2023-07-06T08:52:21.154Z,65.05
2023-07-06T08:53:02.977Z,64.91
2023-07-06T08:53:41.123Z,64.96
2023-07-06T08:54:27.954Z,64.60
2023-07-06T08:55:08.967Z,64.64
2023-07-06T08:55:44.067Z,64.50
2023-07-06T08:56:20.147Z,64.37
2023-07-06T08:57:02.051Z,63.81
2023-07-06T08:57:38.085Z,63.60
2023-07-06T08:58:36.937Z,63.83
2023-07-06T08:59:33.451Z,63.92
2023-07-06T09:00:29.973Z,63.58
2023-07-06T09:00:51.468Z,63.59
2023-07-06T09:01:20.555Z,63.57
2023-07-06T09:01:43.485Z,62.98
2023-07-06T09:02:03.980Z,63.68
2023-07-06T09:02:29.541Z,63.35
2023-07-06T09:02:51.113Z,63.12
2023-07-06T09:03:16.186Z,62.96
2023-07-06T09:03:41.012Z,62.94
2023-07-06T09:04:25.425Z,62.26
2023-07-06T09:04:44.986Z,61.38
2023-07-06T09:05:15.724Z,62.01
2023-07-06T09:05:39.946Z,61.86
2023-07-06T09:06:01.200Z,61.24
2023-07-06T09:06:25.958Z,61.23
2023-07-06T09:06:51.042Z,61.13
2023-07-06T09:07:12.951Z,61.24
2023-07-06T09:07:47.182Z,61.42
2023-07-06T09:08:07.948Z,61.00
2023-07-06T09:08:28.141Z,61.05
2023-07-06T09:08:50.103Z,61.19
2023-07-06T09:09:11.011Z,61.13
2023-07-06T09:09:31.944Z,60.98
2023-07-06T09:10:06.898Z,61.07
2023-07-06T09:10:38.949Z,60.76
2023-07-06T09:11:12.632Z,61.13
2023-07-06T09:11:41.925Z,60.41
2023-07-06T09:12:06.797Z,60.66
2023-07-06T09:12:39.970Z,60.78
2023-07-06T09:13:25.424Z,60.49
2023-07-06T09:13:58.031Z,59.45
2023-07-06T09:14:19.851Z,60.09
2023-07-06T09:14:50.969Z,59.49
2023-07-06T09:15:13.456Z,59.69
2023-07-06T09:15:39.954Z,59.51
2023-07-06T09:15:55.825Z,59.38
2023-07-06T09:16:27.950Z,58.61
2023-07-06T09:16:57.382Z,58.90
2023-07-06T09:17:25.018Z,58.79
2023-07-06T09:17:57.113Z,58.58
2023-07-06T09:18:25.006Z,57.92